• Join FlightAware (Why Join?)
  • Login
  • US Flag 
10:18PM EDT


 

Airport Tracker/Info


-or-


 

Live Flight TrackerFlight Track Log ✈ UAL1249 ✈ 19-Jul-2013 ✈ KDEN - KORD

Flight Track Log - Related Links

Times and Time Zones

All times are in EDT time to prevent confusion due to time zone crossing. See the UAL1249 flight status page for this flight to view local times or setup timezone preferences in your user account.

Time Position Orientation Groundspeed Altitude Reporting Facility
EDT Latitude Longitude Course Direction KTS MPH feet Rate Location/Type
10:45AM 39.8610 -104.6790 292° West 32 37  Level FlightAware
10:45AM 39.8610 -104.6800 270° West 31 36 840 Level FlightAware
10:51AM 39.9092 -104.4061 101° East  Level Estimated
10:51AM 39.8700 -104.6960 101° East 165 190  Level FlightAware
10:51AM 39.8903 -104.6960 360° North 188 216 5,700 11,760 Climbing FlightAware ADS-B
10:51AM 39.8984 -104.6960 360° North 191 220 6,100 2,280 Climbing FlightAware ADS-B
10:52AM 39.9065 -104.6950 North 197 227 6,400 1,500 Climbing FlightAware ADS-B
10:52AM 39.9099 -104.6940 13° North 203 234 6,400 720 Level FlightAware ADS-B
10:52AM 39.9137 -104.6930 11° North 208 239 6,500 1,500 Climbing FlightAware ADS-B
10:52AM 39.9166 -104.6920 15° North 212 244 6,600 1,980 Climbing FlightAware ADS-B
10:52AM 39.9196 -104.6900 27° Northeast 215 247 6,700 1,800 Climbing FlightAware ADS-B
10:52AM 39.9283 -104.6820 35° Northeast 223 257 7,000 1,500 Climbing FlightAware ADS-B
10:52AM 39.9371 -104.6740 35° Northeast 232 267 7,200 2,280 Climbing FlightAware ADS-B
10:52AM 39.9507 -104.6610 36° Northeast 232 267 8,000 2,700 Climbing FlightAware ADS-B
10:53AM 39.9675 -104.6460 34° Northeast 229 264 8,800 1,920 Climbing FlightAware ADS-B
10:53AM 39.9817 -104.6330 35° Northeast 253 291 9,100 1,140 Climbing FlightAware ADS-B
10:53AM 39.9873 -104.6280 34° Northeast 259 298 9,200 1,800 Climbing FlightAware ADS-B
10:53AM 39.9907 -104.6250 34° Northeast 261 300 9,400 2,520 Climbing FlightAware ADS-B
10:53AM 39.9940 -104.6210 43° Northeast 265 305 9,500 1,320 Climbing FlightAware ADS-B
10:53AM 39.9989 -104.6140 48° Northeast 269 310 9,600 1,080 Climbing FlightAware ADS-B
10:53AM 40.0022 -104.6080 54° Northeast 274 315 9,700 1,500 Climbing FlightAware ADS-B
10:53AM 40.0043 -104.6030 61° Northeast 276 318 9,800 1,980 Climbing FlightAware ADS-B
10:54AM 40.0066 -104.5940 72° East 279 321 10,000 2,280 Climbing FlightAware ADS-B
10:54AM 40.0079 -104.5820 82° East 279 321 10,300 2,400 Climbing FlightAware ADS-B
10:54AM 40.0077 -104.5770 93° East 278 320 10,400 3,000 Climbing FlightAware ADS-B
10:54AM 40.0062 -104.5660 100° East 276 318 10,800 3,000 Climbing FlightAware ADS-B
10:54AM 40.0031 -104.5550 110° East 277 319 11,100 2,160 Climbing FlightAware ADS-B
10:54AM 40.0009 -104.5480 112° Southeast 281 323 11,200 1,380 Climbing FlightAware ADS-B
10:54AM 39.9838 -104.5090 120° Southeast 307 353 11,800 1,140 Climbing FlightAware ADS-B
10:55AM 39.9730 -104.4820 118° Southeast 326 375 12,000 1,200 Climbing FlightAware ADS-B
10:55AM 39.9532 -104.4210 113° Southeast 354 407 12,800 2,100 Climbing FlightAware ADS-B
10:56AM 39.9329 -104.3560 112° Southeast 359 413 14,300 2,160 Climbing FlightAware ADS-B
10:56AM 39.9137 -104.2940 112° Southeast 379 436 15,100 1,800 Climbing FlightAware ADS-B
10:57AM 39.8935 -104.2290 112° Southeast 389 448 16,100 1,980 Climbing FlightAware ADS-B
10:57AM 39.8726 -104.1630 112° Southeast 399 459 17,100 2,100 Climbing FlightAware ADS-B
10:58AM 39.8513 -104.0950 112° Southeast 406 467 18,200 2,040 Climbing FlightAware ADS-B
10:58AM 39.8294 -104.0260 112° Southeast 410 472 19,200 1,860 Climbing FlightAware ADS-B
10:59AM 39.8071 -103.9560 113° Southeast 417 480 20,100 1,560 Climbing FlightAware ADS-B
10:59AM 39.7841 -103.8840 113° Southeast 431 496 20,800 960 Climbing FlightAware ADS-B
11:00AM 39.7602 -103.8100 113° Southeast 452 520 21,100 660 Climbing FlightAware ADS-B
11:00AM 39.7511 -103.7750 109° East 460 529 21,300 840 Climbing FlightAware ADS-B
11:00AM 39.7440 -103.7390 104° East 465 535 21,500 1,320 Climbing FlightAware ADS-B
11:00AM 39.7407 -103.7160 101° East 464 534 21,800 1,800 Climbing FlightAware ADS-B
11:01AM 39.7335 -103.6320 96° East 465 535 22,700 1,620 Climbing FlightAware ADS-B
11:01AM 39.7267 -103.5470 96° East 466 536 23,500 1,560 Climbing FlightAware ADS-B
11:02AM 39.7211 -103.4760 96° East 469 540 24,200 1,380 Climbing FlightAware ADS-B
11:02AM 39.7052 -103.3930 104° East 475 547 24,800 1,080 Climbing FlightAware ADS-B
11:03AM 39.6873 -103.3100 106° East 480 552 25,300 960 Climbing FlightAware ADS-B
11:03AM 39.6693 -103.2250 105° East 484 557 25,800 840 Climbing FlightAware ADS-B
11:04AM 39.6519 -103.1390 105° East 491 565 26,200 1,080 Climbing FlightAware ADS-B
11:04AM 39.6355 -103.0520 104° East 489 563 26,900 1,380 Climbing FlightAware ADS-B
11:05AM 39.6314 -103.0300 104° East 490 564 27,100 1,200 Climbing FlightAware ADS-B
11:05AM 39.6216 -102.9430 98° East 488 562 27,700 1,440 Climbing FlightAware ADS-B
11:06AM 39.6126 -102.8540 97° East 484 557 28,600 1,560 Climbing FlightAware ADS-B
11:06AM 39.6037 -102.7680 98° East 479 551 29,300 1,320 Climbing FlightAware ADS-B
11:07AM 39.5945 -102.6820 98° East 476 548 30,000 1,320 Climbing FlightAware ADS-B
11:07AM 39.5853 -102.5970 98° East 474 545 30,700 1,380 Climbing FlightAware ADS-B
11:08AM 39.5760 -102.5130 98° East 472 543 31,400 1,320 Climbing FlightAware ADS-B
11:08AM 39.5665 -102.4270 98° East 469 540 32,100 1,320 Climbing FlightAware ADS-B
11:09AM 39.5570 -102.3420 98° East 467 537 32,800 780 Climbing FlightAware ADS-B
11:09AM 39.5459 -102.2440 98° East 474 545 33,000 180 Climbing FlightAware ADS-B
11:10AM 39.5359 -102.1570 98° East 475 547 33,000  Level FlightAware ADS-B
11:10AM 39.5246 -102.0590 98° East 475 547 33,000  Level FlightAware ADS-B
11:11AM 39.5143 -101.9680 98° East 475 547 33,000  Level FlightAware ADS-B
11:12AM 39.4985 -101.8320 99° East 474 545 33,000  Level FlightAware ADS-B
11:12AM 39.4883 -101.7450 99° East 474 545 33,000  Level FlightAware ADS-B
11:13AM 39.4775 -101.6550 99° East 475 547 33,000  Level FlightAware ADS-B
11:13AM 39.4668 -101.5650 99° East 475 547 33,000  Level FlightAware ADS-B
11:14AM 39.4565 -101.4800 99° East 476 548 33,000  Level FlightAware ADS-B
11:14AM 39.4453 -101.3920 99° East 475 547 33,000  Level FlightAware ADS-B
11:15AM 39.4345 -101.3040 99° East 476 548 33,000  Level FlightAware ADS-B
11:16AM 39.4158 -101.1578 99° East 475 547 33,000  Level Denver Center
11:17AM 39.3964 -100.9967 99° East 475 547 33,000  Level Denver Center
11:18AM 39.3764 -100.8361 99° East 475 547 33,000  Level Denver Center
11:19AM 39.3528 -100.6469 99° East 477 549 33,000  Level Denver Center
11:20AM 39.3328 -100.4858 99° East 477 549 33,000  Level Denver Center
11:21AM 39.3075 -100.3006 100° East 473 544 33,000  Level Denver Center
11:22AM 39.2872 -100.1425 99° East 469 540 33,000  Level Denver Center
11:23AM 39.2625 -99.9578 100° East 469 540 33,000  Level Denver Center
11:24AM 39.2411 -99.8000 100° East 468 539 33,000  Level Denver Center
11:30AM 39.1021 -98.8026 100° East 459 528 33,000  Level FlightAware ADS-B
11:30AM 39.0903 -98.7214 101° East 458 527 33,000  Level FlightAware ADS-B
11:31AM 39.0785 -98.6401 101° East 457 526 33,000  Level FlightAware ADS-B
11:31AM 39.0667 -98.5588 101° East 455 524 33,000  Level FlightAware ADS-B
11:32AM 39.0520 -98.4585 101° East 454 522 33,000  Level FlightAware ADS-B
11:33AM 39.0460 -98.4140 100° East 454 522 33,000  Level FlightAware
11:33AM 39.0302 -98.3122 101° East 452 520 33,000  Level FlightAware ADS-B
11:34AM 39.0148 -98.2095 101° East 452 520 33,000  Level FlightAware ADS-B
11:34AM 39.0027 -98.1295 101° East 452 520 33,000  Level FlightAware ADS-B
11:35AM 38.9902 -98.0462 101° East 453 521 33,000  Level FlightAware ADS-B
11:35AM 38.9780 -97.9660 101° East 457 526 33,000  Level FlightAware ADS-B
11:36AM 38.9646 -97.8779 101° East 457 526 33,000  Level FlightAware ADS-B
11:36AM 38.9597 -97.8349 98° East 456 525 33,000  Level FlightAware ADS-B
11:36AM 38.9601 -97.8061 89° East 453 521 33,000  Level FlightAware ADS-B
11:36AM 38.9614 -97.7909 84° East 452 520 33,000  Level FlightAware ADS-B
11:36AM 38.9662 -97.7619 78° East 450 518 33,000  Level FlightAware ADS-B
11:37AM 38.9844 -97.6851 73° East 450 518 33,000  Level FlightAware ADS-B
11:38AM 39.0170 -97.5530 72° East 450 518 33,000  Level FlightAware
11:38AM 39.0265 -97.5141 73° East 450 518 33,000  Level FlightAware ADS-B
11:39AM 39.0466 -97.4344 72° East 451 519 33,000  Level FlightAware ADS-B
11:39AM 39.0660 -97.3567 72° East 451 519 33,000  Level FlightAware ADS-B
11:40AM 39.0851 -97.2796 72° East 452 520 33,000  Level FlightAware ADS-B
11:40AM 39.1041 -97.2025 72° East 452 520 33,000  Level FlightAware ADS-B
11:41AM 39.1230 -97.1254 72° East 453 521 33,000  Level FlightAware ADS-B
11:41AM 39.1420 -97.0481 72° East 454 522 33,000  Level FlightAware ADS-B
11:42AM 39.1614 -96.9690 72° East 455 524 33,000  Level FlightAware ADS-B
11:42AM 39.1809 -96.8890 73° East 455 524 33,000  Level FlightAware ADS-B
11:43AM 39.1997 -96.8116 73° East 455 524 33,000  Level FlightAware ADS-B
11:43AM 39.2192 -96.7314 73° East 455 524 33,000  Level FlightAware ADS-B
11:44AM 39.2390 -96.6495 73° East 455 524 33,000  Level FlightAware ADS-B
11:44AM 39.2581 -96.5701 73° East 455 524 33,000  Level FlightAware ADS-B
11:45AM 39.2767 -96.4924 73° East 454 522 33,000  Level FlightAware ADS-B
11:45AM 39.2953 -96.4147 73° East 453 521 33,000  Level FlightAware ADS-B
11:46AM 39.3145 -96.3350 73° East 453 521 33,000  Level FlightAware ADS-B
11:46AM 39.3331 -96.2562 73° East 454 522 33,000  Level FlightAware ADS-B
11:47AM 39.3523 -96.1753 73° East 454 522 33,000  Level FlightAware ADS-B
11:47AM 39.3720 -96.0920 73° East 454 522 33,000  Level FlightAware ADS-B
11:48AM 39.3904 -96.0140 73° East 454 522 33,000  Level FlightAware ADS-B
11:48AM 39.4086 -95.9356 73° East 455 524 33,000  Level FlightAware ADS-B
11:49AM 39.4281 -95.8520 73° East 457 526 33,000  Level FlightAware ADS-B
11:49AM 39.4464 -95.7732 73° East 457 526 33,000  Level FlightAware ADS-B
11:50AM 39.4647 -95.6944 73° East 456 525 33,000  Level FlightAware ADS-B
11:50AM 39.4830 -95.6156 73° East 456 525 33,000  Level FlightAware ADS-B
11:51AM 39.5013 -95.5359 73° East 456 525 33,000  Level FlightAware ADS-B
11:51AM 39.5195 -95.4566 73° East 456 525 33,000  Level FlightAware ADS-B
11:52AM 39.5373 -95.3786 73° East 455 524 33,000  Level FlightAware ADS-B
11:52AM 39.5559 -95.2968 74° East 454 522 33,000  Level FlightAware ADS-B
11:53AM 39.5759 -95.2088 74° East 454 522 33,000  Level FlightAware ADS-B
11:53AM 39.5934 -95.1309 74° East 454 522 33,000  Level FlightAware ADS-B
11:54AM 39.6113 -95.0519 74° East 454 522 33,000  Level FlightAware ADS-B
11:54AM 39.6292 -94.9724 74° East 455 524 33,000  Level FlightAware ADS-B
11:55AM 39.6500 -94.8794 74° East 455 524 33,000  Level FlightAware ADS-B
11:56AM 39.6679 -94.7991 74° East 455 524 33,000  Level FlightAware ADS-B
11:56AM 39.6869 -94.7134 74° East 456 525 33,000  Level FlightAware ADS-B
11:57AM 39.7067 -94.6241 74° East 455 524 33,000  Level FlightAware ADS-B
11:57AM 39.7245 -94.5435 74° East 455 524 33,000  Level FlightAware ADS-B
11:58AM 39.7459 -94.4457 74° East 455 524 33,000  Level FlightAware ADS-B
11:58AM 39.7640 -94.3630 74° East 456 525 33,000  Level FlightAware ADS-B
11:59AM 39.7815 -94.2828 74° East 456 525 33,000  Level FlightAware ADS-B
11:59AM 39.7994 -94.2006 74° East 458 527 33,000  Level FlightAware ADS-B
12:00PM 39.8171 -94.1192 74° East 460 529 33,000  Level FlightAware ADS-B
12:00PM 39.8357 -94.0329 74° East 462 532 33,000  Level FlightAware ADS-B
12:01PM 39.8530 -93.9522 74° East 463 533 33,000  Level FlightAware ADS-B
12:01PM 39.8703 -93.8713 74° East 464 534 33,000  Level FlightAware ADS-B
12:02PM 39.8877 -93.7889 75° East 463 533 33,000  Level FlightAware ADS-B
12:02PM 39.8947 -93.7615 72° East 462 532 33,000  Level FlightAware ADS-B
12:03PM 39.9174 -93.6833 69° East 462 532 33,000  Level FlightAware ADS-B
12:03PM 39.9408 -93.6033 69° East 462 532 33,000  Level FlightAware ADS-B
12:04PM 39.9639 -93.5241 69° East 463 533 33,000  Level FlightAware ADS-B
12:04PM 39.9868 -93.4453 69° East 463 533 33,000  Level FlightAware ADS-B
12:05PM 40.0218 -93.3240 69° East 462 532 33,000  Level FlightAware ADS-B
12:06PM 40.0630 -93.1810 69° East 461 531 33,000  Level FlightAware
12:07PM 40.0950 -93.0660 70° East 460 529 33,000  Level FlightAware
12:07PM 40.1260 -92.9580 69° East 460 529 33,000  Level FlightAware
12:08PM 40.1590 -92.8420 70° East 462 532 33,000  Level FlightAware
12:09PM 40.1890 -92.7360 70° East 462 532 33,000  Level FlightAware
12:09PM 40.2130 -92.6480 70° East 462 532 33,000  Level FlightAware
12:10PM 40.2450 -92.5360 69° East 464 534 33,000  Level FlightAware
12:11PM 40.2680 -92.4510 70° East 465 535 33,000  Level FlightAware
12:11PM 40.3000 -92.3370 70° East 468 539 33,000  Level FlightAware
12:12PM 40.3260 -92.2440 70° East 468 539 33,000  Level FlightAware
12:13PM 40.3680 -92.0910 70° East 470 541 33,000  Level FlightAware
12:14PM 40.4090 -91.9380 71° East 471 542 33,000  Level FlightAware
12:14PM 40.4330 -91.8490 70° East 471 542 33,000  Level FlightAware
12:15PM 40.4650 -91.7320 70° East 472 543 33,000  Level FlightAware
12:16PM 40.4950 -91.6200 71° East 473 544 33,000  Level FlightAware
12:16PM 40.5190 -91.5350 70° East 473 544 33,000  Level FlightAware
12:17PM 40.5550 -91.4000 71° East 474 545 33,000  Level FlightAware
12:18PM 40.5830 -91.3190 66° East 475 547 33,000  Level FlightAware
12:18PM 40.6130 -91.2340 65° Northeast 475 547 33,000  Level FlightAware
12:19PM 40.6740 -91.0500 66° East 472 543 33,000  Level FlightAware
12:19PM 40.6820 -91.0290 63° Northeast 470 541 33,000 -840 Level FlightAware
12:21PM 40.7450 -90.8440 66° East 457 526 31,900 -960 Descending FlightAware
12:21PM 40.7800 -90.7370 67° East 451 519 31,200 -1,080 Descending FlightAware
12:22PM 40.8160 -90.6310 66° East 445 512 30,400 -1,080 Descending FlightAware
12:23PM 40.8460 -90.5410 66° East 443 510 29,800 -960 Descending FlightAware
12:23PM 40.8780 -90.4470 66° East 444 511 29,200 -1,020 Descending FlightAware
12:24PM 40.9180 -90.3250 67° East 443 510 28,400 -1,080 Descending FlightAware
12:25PM 40.9510 -90.2260 66° East 441 507 27,700 -1,020 Descending FlightAware
12:25PM 40.9860 -90.1200 66° East 444 511 27,000 -840 Descending FlightAware
12:26PM 41.0110 -90.0450 66° East 446 513 26,500 -780 Descending FlightAware
12:27PM 41.0510 -89.9210 67° East 480 552 25,900 -840 Descending FlightAware
12:28PM 41.0900 -89.8010 67° East 489 563 25,300 -1,080 Descending FlightAware
12:28PM 41.1390 -89.6500 67° East 485 558 24,400 -1,020 Descending FlightAware
12:29PM 41.1720 -89.5570 65° Northeast 475 547 24,000 -780 Descending FlightAware
12:30PM 41.2150 -89.4520 61° Northeast 471 542 23,400 -1,860 Descending FlightAware
12:30PM 41.2610 -89.3380 62° Northeast 463 533 21,500 -2,640 Descending FlightAware
12:31PM 41.2990 -89.2430 62° Northeast 454 522 20,000 -2,460 Descending FlightAware
12:32PM 41.3360 -89.1500 62° Northeast 444 511 18,400 -2,460 Descending FlightAware
12:32PM 41.3750 -89.0540 62° Northeast 434 499 16,800 -2,400 Descending FlightAware
12:33PM 41.4170 -88.9490 62° Northeast 424 488 15,000 -2,340 Descending FlightAware
12:34PM 41.4570 -88.8470 62° Northeast 413 475 13,300 -2,400 Descending FlightAware
12:34PM 41.4930 -88.7570 62° Northeast 404 465 11,700 -1,740 Descending FlightAware
12:35PM 41.5170 -88.6950 63° Northeast 387 445 11,000 -540 Descending FlightAware
12:36PM 41.5450 -88.6260 62° Northeast 377 434 11,000 60 Level FlightAware
12:36PM 41.5790 -88.5390 62° Northeast 374 430 11,100 -720 Climbing FlightAware
12:37PM 41.6340 -88.4230 58° Northeast 376 433 10,000 -840 Descending FlightAware
12:38PM 41.6730 -88.3570 52° Northeast 373 429 10,000  Level FlightAware
12:39PM 41.7160 -88.2830 52° Northeast 370 426 10,000  Level FlightAware
12:39PM 41.7470 -88.2300 52° Northeast 331 381 10,000 -120 Level FlightAware
12:39PM 41.7580 -88.2100 54° Northeast 320 368 9,900 -1,020 Descending FlightAware
12:40PM 41.8010 -88.1390 51° Northeast 317 365 8,800 -1,500 Descending FlightAware
12:41PM 41.8410 -88.0680 53° Northeast 312 359 7,800 -1,680 Descending FlightAware
12:41PM 41.8550 -88.0400 56° Northeast 309 356 7,400 -1,500 Descending FlightAware
12:41PM 41.8620 -88.0180 67° East 308 354 7,100 -900 Descending FlightAware
12:42PM 41.8650 -87.9890 82° East 307 353 7,000 -180 Descending FlightAware
12:42PM 41.8700 -87.9340 83° East 306 352 7,000  Level FlightAware
12:42PM 41.8750 -87.8910 81° East 291 335 7,000  Level FlightAware
12:43PM 41.8780 -87.8650 81° East 276 318 7,000  Level FlightAware
12:43PM 41.8820 -87.8240 83° East 265 305 7,000 -720 Level FlightAware
12:44PM 41.8840 -87.7720 87° East 273 314 6,200 -1,740 Descending FlightAware
12:44PM 41.8840 -87.6970 90° East 266 306 5,200 -1,500 Descending FlightAware
12:45PM 41.8950 -87.6360 76° East 256 295 4,400 -1,080 Descending FlightAware
12:45PM 41.9100 -87.6240 31° Northeast 235 270 4,200 -720 Descending FlightAware
12:45PM 41.9190 -87.6220 North 224 258 4,100 -600 Descending FlightAware
12:46PM 41.9380 -87.6350 333° Northwest 184 212 3,900 -840 Descending FlightAware
12:46PM 41.9440 -87.6520 295° West 173 199 3,600 -1,620 Descending FlightAware
12:47PM 41.9540 -87.6840 293° West 188 216 2,700 -1,260 Descending FlightAware
12:47PM 41.9620 -87.7120 291° West 176 203 2,400 -600 Descending FlightAware
12:47PM 41.9690 -87.7350 292° West 177 204 2,200 -360 Descending FlightAware
12:48PM 41.9690 -87.7520 270° West 170 196 2,200  Level FlightAware
12:48PM 41.9690 -87.7650 270° West 172 198 2,200 -600 Level FlightAware
12:49PM 41.9690 -87.8090 270° West 151 174 1,700 -660 Descending FlightAware
12:49PM 41.9690 -87.8230 270° West 147 169 1,600 -720 Descending FlightAware
12:49PM 41.9690 -87.8480 270° West 149 171 1,200 -840 Descending FlightAware
12:50PM 41.9690 -87.8870 270° West 152 175 700 -480 Descending FlightAware
12:50PM 41.9690 -87.9070 270° West 152 175 700  Level FlightAware